Archer, Illinois
Current Conditions -  °F | °C
As of 7:52 AM on Monday 24 Nov 2014 (Local Time) from KSPI Reporting Station
Overcast Overcast  
Wind Chill: 25°   Ceiling: 1400
Heat Index: 36°   Visibility: 10mi
Dew Point: 32°   Wind: 21mph
Humidity: 86%   Direction: 270°W
Pressure: 29.43"   Gusts: NA
Location:  39.854°N, 89.6295°W
Report Text: KSPI 241352Z 27018KT 10SM OVC014 02/00 A2943 RMK AO2 PK WND 27027/1303 UPB04E10SNE04 SLP968 P0000 T00220000
Loading
Personal Weather Stations






























Interactive Weather Map New forecast layout! Learn more

10-Day Weather Forecast

Advertisements
Track Severe Weather on mobile